createdAt,value
2022-08-17T00:03:40.120Z,75.70
2022-08-17T00:07:22.220Z,75.60
2022-08-17T00:11:17.089Z,75.50
2022-08-17T00:14:58.904Z,75.70
2022-08-17T00:19:06.830Z,75.60
2022-08-17T00:22:43.892Z,75.70
2022-08-17T00:26:43.701Z,75.70
2022-08-17T00:30:27.215Z,75.70
2022-08-17T00:34:10.084Z,75.70
2022-08-17T00:37:52.205Z,75.60
2022-08-17T00:41:35.774Z,75.70
2022-08-17T00:45:20.321Z,75.70
2022-08-17T00:49:02.579Z,75.80
2022-08-17T00:52:54.878Z,75.80
2022-08-17T00:56:41.627Z,76.10
2022-08-17T01:00:32.755Z,75.80
2022-08-17T01:04:17.925Z,75.90
2022-08-17T01:08:02.008Z,75.80
2022-08-17T01:11:45.148Z,75.80
2022-08-17T01:15:27.162Z,75.70
2022-08-17T01:19:22.038Z,75.80
2022-08-17T01:23:04.150Z,76.20
2022-08-17T01:26:46.411Z,75.80
2022-08-17T01:30:56.861Z,75.70
2022-08-17T01:34:42.309Z,75.70
2022-08-17T01:38:31.434Z,75.70
2022-08-17T01:42:51.643Z,75.80
2022-08-17T01:46:35.614Z,76.10
2022-08-17T01:50:21.309Z,75.70
2022-08-17T01:54:08.492Z,75.80
2022-08-17T01:57:50.278Z,75.90
2022-08-17T02:01:34.718Z,75.90
2022-08-17T02:05:17.061Z,76.00
2022-08-17T02:09:03.168Z,76.00
2022-08-17T02:12:45.443Z,76.00
2022-08-17T02:16:27.324Z,76.00
2022-08-17T02:20:42.159Z,76.00
2022-08-17T02:25:00.551Z,76.00
2022-08-17T02:28:28.636Z,76.10
2022-08-17T02:32:28.487Z,76.10
2022-08-17T02:36:12.693Z,76.50
2022-08-17T02:39:57.157Z,76.00
2022-08-17T02:43:40.347Z,76.00
2022-08-17T02:47:22.364Z,76.00
2022-08-17T02:51:04.211Z,76.00
2022-08-17T02:54:46.863Z,76.00
2022-08-17T02:58:34.913Z,75.90
2022-08-17T03:02:17.519Z,75.90
2022-08-17T03:05:59.315Z,75.90
2022-08-17T03:09:41.139Z,75.90
2022-08-17T03:13:23.250Z,75.90
2022-08-17T03:17:05.164Z,75.90
2022-08-17T03:20:47.450Z,76.00
2022-08-17T03:24:29.249Z,76.00
2022-08-17T03:28:12.168Z,76.00
2022-08-17T03:31:53.986Z,76.10
2022-08-17T03:35:37.596Z,76.10
2022-08-17T03:39:19.378Z,76.10
2022-08-17T03:43:09.033Z,76.10
2022-08-17T03:47:09.637Z,76.30
2022-08-17T03:51:14.658Z,76.10
2022-08-17T03:55:15.530Z,76.20
2022-08-17T03:58:57.364Z,76.20
2022-08-17T04:02:39.350Z,76.20
2022-08-17T04:06:21.127Z,76.20
2022-08-17T04:10:02.964Z,76.20
2022-08-17T04:13:44.766Z,76.30
2022-08-17T04:17:29.085Z,76.30
2022-08-17T04:21:10.927Z,76.40
2022-08-17T04:24:52.692Z,76.40
2022-08-17T04:28:35.427Z,76.50
2022-08-17T04:32:20.599Z,76.40
2022-08-17T04:36:19.092Z,76.40
2022-08-17T04:40:19.569Z,76.40
2022-08-17T04:44:03.855Z,76.50
2022-08-17T04:47:45.723Z,76.50
2022-08-17T04:51:30.990Z,76.50
2022-08-17T04:55:12.881Z,76.50
2022-08-17T04:58:58.342Z,76.50
2022-08-17T05:02:49.842Z,76.60
2022-08-17T05:06:32.360Z,77.00
2022-08-17T05:10:14.173Z,76.50
2022-08-17T05:13:58.534Z,76.50
2022-08-17T05:17:40.340Z,76.60
2022-08-17T05:21:23.181Z,76.60
2022-08-17T05:25:05.320Z,76.70
2022-08-17T05:28:47.979Z,76.70
2022-08-17T05:32:38.321Z,76.70
2022-08-17T05:36:37.966Z,76.80
2022-08-17T05:40:25.915Z,76.70
2022-08-17T05:44:07.727Z,76.60
2022-08-17T05:47:49.494Z,76.70
2022-08-17T05:51:47.539Z,76.80
2022-08-17T05:55:49.047Z,77.00
2022-08-17T05:59:33.543Z,77.10
2022-08-17T06:03:34.127Z,76.80
2022-08-17T06:07:32.171Z,77.60
2022-08-17T06:11:38.706Z,77.30
2022-08-17T06:15:41.711Z,76.90
2022-08-17T06:19:42.216Z,76.80
2022-08-17T06:23:42.823Z,77.40
2022-08-17T06:27:32.776Z,77.10
2022-08-17T06:31:22.569Z,76.90
2022-08-17T06:35:07.525Z,76.90
2022-08-17T06:39:19.827Z,76.90
2022-08-17T06:43:17.809Z,77.40
2022-08-17T06:47:28.709Z,77.30
2022-08-17T06:51:30.564Z,76.90
2022-08-17T06:55:18.950Z,76.80
2022-08-17T06:59:01.840Z,76.90
2022-08-17T07:02:56.495Z,76.80
2022-08-17T07:06:48.778Z,77.20
2022-08-17T07:10:44.854Z,77.10
2022-08-17T07:14:41.162Z,77.20
2022-08-17T07:18:25.457Z,77.50
2022-08-17T07:22:07.216Z,76.90
2022-08-17T07:25:55.095Z,76.90
2022-08-17T07:29:40.477Z,76.80
2022-08-17T07:33:30.135Z,77.10
2022-08-17T07:37:12.681Z,76.80
2022-08-17T07:40:57.991Z,76.80
2022-08-17T07:44:54.951Z,76.80
2022-08-17T07:48:38.733Z,77.10
2022-08-17T07:52:51.034Z,76.60
2022-08-17T07:56:41.821Z,77.00
2022-08-17T08:00:32.612Z,76.70
2022-08-17T08:04:43.193Z,76.50
2022-08-17T08:08:42.711Z,76.50
2022-08-17T08:12:52.741Z,76.40
2022-08-17T08:16:36.727Z,76.20
2022-08-17T08:20:40.823Z,76.00
2022-08-17T08:25:12.861Z,75.90
2022-08-17T08:29:22.425Z,75.70
2022-08-17T08:33:35.767Z,75.50
2022-08-17T08:37:34.750Z,75.40
2022-08-17T08:41:19.663Z,75.50
2022-08-17T08:45:23.566Z,75.70
2022-08-17T08:49:14.389Z,75.10
2022-08-17T08:53:18.844Z,75.00
2022-08-17T08:57:27.814Z,74.90
2022-08-17T09:01:30.182Z,74.20
2022-08-17T09:05:57.419Z,74.30
2022-08-17T09:09:46.682Z,74.10
2022-08-17T09:13:54.469Z,74.40
2022-08-17T09:17:50.117Z,73.70
2022-08-17T09:21:48.610Z,73.40
2022-08-17T09:25:34.951Z,73.60
2022-08-17T09:29:19.913Z,74.00
2022-08-17T09:33:10.192Z,74.10
2022-08-17T09:37:03.488Z,73.60
2022-08-17T09:41:05.878Z,73.30
2022-08-17T09:44:59.611Z,72.50
2022-08-17T09:48:58.912Z,72.70
2022-08-17T09:52:42.887Z,71.40
2022-08-17T09:57:05.953Z,72.00
2022-08-17T10:01:22.578Z,71.40
2022-08-17T10:05:17.980Z,71.80
2022-08-17T10:09:08.470Z,71.70
2022-08-17T10:13:05.226Z,71.50
2022-08-17T10:17:15.823Z,70.50
2022-08-17T10:21:26.563Z,69.70
2022-08-17T10:25:54.142Z,70.00
2022-08-17T10:29:50.983Z,70.30
2022-08-17T10:33:54.141Z,68.80
2022-08-17T10:38:08.073Z,69.20
2022-08-17T10:41:54.130Z,69.30
2022-08-17T10:45:46.952Z,69.40
2022-08-17T10:49:33.862Z,69.40
2022-08-17T10:53:38.692Z,69.20
2022-08-17T10:57:36.438Z,67.70
2022-08-17T11:01:18.334Z,68.10
2022-08-17T11:05:20.719Z,68.70
2022-08-17T11:09:21.347Z,67.40
2022-08-17T11:13:28.048Z,66.80
2022-08-17T11:17:11.321Z,67.90
2022-08-17T11:21:20.771Z,68.20
2022-08-17T11:25:21.087Z,67.10
2022-08-17T11:29:09.600Z,66.70
2022-08-17T11:32:54.636Z,67.60
2022-08-17T11:37:07.877Z,67.80
2022-08-17T11:40:59.983Z,66.40
2022-08-17T11:44:56.400Z,66.50
2022-08-17T11:49:11.906Z,67.30
2022-08-17T11:52:53.909Z,67.00
2022-08-17T11:56:49.020Z,67.50
2022-08-17T12:00:56.637Z,66.80
2022-08-17T12:05:04.941Z,65.80
2022-08-17T12:09:00.303Z,65.30
2022-08-17T12:12:44.182Z,66.40
2022-08-17T12:16:26.157Z,66.30
2022-08-17T12:20:23.449Z,66.00
2022-08-17T12:24:15.505Z,64.40
2022-08-17T12:28:05.286Z,64.90
2022-08-17T12:31:54.422Z,64.90
2022-08-17T12:35:39.027Z,63.80
2022-08-17T12:39:25.051Z,63.90
2022-08-17T12:43:19.625Z,64.00
2022-08-17T12:47:19.386Z,62.40
2022-08-17T12:51:07.795Z,62.00
2022-08-17T12:55:22.992Z,63.00
2022-08-17T12:59:11.096Z,60.30
2022-08-17T13:02:53.421Z,61.90
2022-08-17T13:06:36.750Z,62.30
2022-08-17T13:10:31.592Z,61.80
2022-08-17T13:14:18.282Z,61.30
2022-08-17T13:18:22.799Z,62.00
2022-08-17T13:22:10.896Z,61.00
2022-08-17T13:25:57.710Z,58.90
2022-08-17T13:29:45.389Z,59.10
2022-08-17T13:33:43.682Z,57.10
2022-08-17T13:37:34.604Z,58.70
2022-08-17T13:41:53.016Z,57.60
2022-08-17T13:45:43.458Z,56.00
2022-08-17T13:49:48.424Z,55.20
2022-08-17T13:53:36.969Z,57.50
2022-08-17T13:57:24.672Z,55.10
2022-08-17T14:01:29.758Z,54.90
2022-08-17T14:05:11.796Z,53.50
2022-08-17T14:08:55.760Z,55.00
2022-08-17T14:12:39.887Z,55.10
2022-08-17T14:16:22.226Z,55.20
2022-08-17T14:20:05.957Z,55.80
2022-08-17T14:23:54.289Z,55.50
2022-08-17T14:27:51.922Z,55.50
2022-08-17T14:31:41.459Z,55.80
2022-08-17T14:35:31.774Z,56.10
2022-08-17T14:39:16.553Z,55.70
2022-08-17T14:42:58.423Z,54.90
2022-08-17T14:46:42.150Z,54.50
2022-08-17T14:50:24.829Z,53.80
2022-08-17T14:54:07.786Z,53.10
2022-08-17T14:57:49.769Z,52.60
2022-08-17T15:01:31.860Z,52.20
2022-08-17T15:05:16.331Z,52.00
2022-08-17T15:08:58.233Z,51.30
2022-08-17T15:12:40.870Z,50.30
2022-08-17T15:16:23.459Z,50.20
2022-08-17T15:20:14.598Z,50.10
2022-08-17T15:24:02.996Z,49.20
2022-08-17T15:27:44.989Z,49.20
2022-08-17T15:31:31.947Z,48.60
2022-08-17T15:35:14.532Z,48.20
2022-08-17T15:38:56.367Z,46.90
2022-08-17T15:42:39.954Z,46.80
2022-08-17T15:46:26.850Z,45.90
2022-08-17T15:50:10.048Z,45.50
2022-08-17T15:53:55.080Z,46.20
2022-08-17T15:57:38.278Z,46.50
2022-08-17T16:02:27.742Z,47.60
2022-08-17T16:05:31.196Z,47.70
2022-08-17T16:09:13.301Z,48.20
2022-08-17T16:12:55.531Z,48.80
2022-08-17T16:16:37.342Z,49.30
2022-08-17T16:20:21.937Z,49.70
2022-08-17T16:24:13.307Z,50.20
2022-08-17T16:27:57.852Z,50.60
2022-08-17T16:31:43.461Z,51.00
2022-08-17T16:35:28.238Z,51.30
2022-08-17T16:39:10.701Z,51.70
2022-08-17T16:43:00.193Z,51.90
2022-08-17T16:46:45.500Z,52.30
2022-08-17T16:50:31.867Z,52.40
2022-08-17T16:54:17.784Z,52.70
2022-08-17T16:58:00.121Z,52.80
2022-08-17T17:01:43.253Z,52.90
2022-08-17T17:05:43.403Z,53.20
2022-08-17T17:09:29.451Z,53.50
2022-08-17T17:13:19.327Z,53.90
2022-08-17T17:17:09.051Z,54.30
2022-08-17T17:20:57.754Z,54.60
2022-08-17T17:24:58.515Z,54.90
2022-08-17T17:29:16.260Z,55.10
2022-08-17T17:33:19.561Z,55.60
2022-08-17T17:37:08.651Z,55.80
2022-08-17T17:40:54.838Z,55.60
2022-08-17T17:44:55.687Z,55.70
2022-08-17T17:48:37.677Z,55.90
2022-08-17T17:52:57.757Z,55.90
2022-08-17T17:56:59.850Z,56.20
2022-08-17T18:01:16.349Z,56.00
2022-08-17T18:05:03.769Z,56.70
2022-08-17T18:08:58.656Z,56.40
2022-08-17T18:12:43.300Z,56.50
2022-08-17T18:16:32.780Z,56.50
2022-08-17T18:20:32.378Z,56.60
2022-08-17T18:24:46.446Z,57.10
2022-08-17T18:28:35.691Z,57.30
2022-08-17T18:32:40.018Z,57.10
2022-08-17T18:36:36.239Z,57.70
2022-08-17T18:40:21.786Z,57.90
2022-08-17T18:44:44.498Z,57.50
2022-08-17T18:48:26.279Z,58.40
2022-08-17T18:52:17.348Z,57.70
2022-08-17T18:56:21.382Z,57.90
2022-08-17T19:00:14.602Z,58.80
2022-08-17T19:03:59.019Z,58.70
2022-08-17T19:07:45.148Z,58.40
2022-08-17T19:11:37.323Z,58.80
2022-08-17T19:15:27.731Z,59.50
2022-08-17T19:19:33.615Z,59.60
2022-08-17T19:23:31.702Z,60.40
2022-08-17T19:27:34.713Z,60.10
2022-08-17T19:31:27.366Z,60.20
2022-08-17T19:35:17.725Z,59.50
2022-08-17T19:39:37.996Z,59.60
2022-08-17T19:43:47.952Z,60.40
2022-08-17T19:47:54.341Z,60.60
2022-08-17T19:51:50.580Z,60.20
2022-08-17T19:55:43.593Z,60.30
2022-08-17T19:59:53.215Z,61.20
2022-08-17T20:03:54.672Z,61.20
2022-08-17T20:07:52.734Z,60.60
2022-08-17T20:11:54.602Z,61.20
2022-08-17T20:15:41.403Z,61.10
2022-08-17T20:19:42.906Z,60.80
2022-08-17T20:23:36.594Z,61.40
2022-08-17T20:27:32.530Z,61.70
2022-08-17T20:32:01.583Z,62.20
2022-08-17T20:36:18.622Z,62.40
2022-08-17T20:40:00.481Z,62.30
2022-08-17T20:43:48.653Z,61.50
2022-08-17T20:47:55.143Z,61.70
2022-08-17T20:51:54.588Z,61.90
2022-08-17T20:55:51.360Z,61.80
2022-08-17T20:59:33.811Z,61.80
2022-08-17T21:03:24.306Z,62.00
2022-08-17T21:07:53.450Z,62.60
2022-08-17T21:11:57.261Z,63.20
2022-08-17T21:15:53.212Z,62.20
2022-08-17T21:20:12.875Z,63.00
2022-08-17T21:24:48.502Z,63.10
2022-08-17T21:29:00.804Z,63.10
2022-08-17T21:32:44.619Z,62.20
2022-08-17T21:36:27.291Z,62.30
2022-08-17T21:40:29.062Z,62.40
2022-08-17T21:44:48.618Z,63.30
2022-08-17T21:48:39.958Z,63.30
2022-08-17T21:52:25.519Z,62.50
2022-08-17T21:56:10.400Z,62.70
2022-08-17T22:00:06.773Z,62.60
2022-08-17T22:03:59.912Z,63.40
2022-08-17T22:07:50.876Z,63.20
2022-08-17T22:12:01.008Z,63.20
2022-08-17T22:15:45.215Z,63.30
2022-08-17T22:19:28.137Z,62.50
2022-08-17T22:23:33.077Z,62.60
2022-08-17T22:27:14.947Z,63.20
2022-08-17T22:31:04.268Z,63.00
2022-08-17T22:34:47.182Z,63.50
2022-08-17T22:38:30.043Z,63.20
2022-08-17T22:42:17.645Z,63.50
2022-08-17T22:46:00.245Z,64.10
2022-08-17T22:50:04.529Z,63.80
2022-08-17T22:54:11.562Z,64.60
2022-08-17T22:58:22.723Z,64.50
2022-08-17T23:02:21.374Z,63.70
2022-08-17T23:06:11.909Z,64.50
2022-08-17T23:09:53.733Z,64.30
2022-08-17T23:13:37.661Z,63.90
2022-08-17T23:17:19.504Z,64.00
2022-08-17T23:21:06.890Z,64.00
2022-08-17T23:24:51.485Z,63.90
2022-08-17T23:28:37.350Z,64.30
2022-08-17T23:32:19.170Z,64.20
2022-08-17T23:36:01.143Z,64.30
2022-08-17T23:39:46.772Z,64.50
2022-08-17T23:43:33.930Z,64.70
2022-08-17T23:47:16.031Z,65.10
2022-08-17T23:51:00.251Z,64.70
2022-08-17T23:54:53.112Z,64.70
2022-08-17T23:58:34.881Z,64.90
